Time;durP1;ratioP1;P1;durP2;ratioP2;P2;SDS_P1;SDS_P2;PMS_P1;PMS_P2;Temp;Humidity;BMP_temperature;BMP_pressure;BME280_temperature;BME280_humidity;BME280_pressure;Samples;Min_cycle;Max_cycle;Signal;HPM_P1;HPM_P2
2023/07/30 00:02:40;;;;;;;3.35;1.70;;;18.20;99.90;;;;;;5008723;28;20045;-82
2023/07/30 00:05:26;;;;;;;3.25;1.85;;;18.20;99.90;;;;;;5006295;28;20037;-76
2023/07/30 00:08:11;;;;;;;3.40;1.70;;;18.20;99.90;;;;;;5035781;28;20052;-76
2023/07/30 00:10:58;;;;;;;2.72;1.38;;;18.20;99.90;;;;;;5028042;28;20064;-75
2023/07/30 00:13:46;;;;;;;2.50;1.48;;;18.20;99.90;;;;;;5025438;28;20036;-75
2023/07/30 00:16:32;;;;;;;2.92;1.52;;;18.20;99.90;;;;;;5019106;28;20041;-76
2023/07/30 00:19:18;;;;;;;3.80;1.55;;;18.20;99.90;;;;;;5012346;28;20136;-75
2023/07/30 00:22:04;;;;;;;8.38;1.98;;;18.20;99.90;;;;;;5022606;28;20052;-75
2023/07/30 00:24:50;;;;;;;2.60;1.48;;;18.10;99.90;;;;;;5016181;28;20042;-75
2023/07/30 00:27:36;;;;;;;5.43;1.60;;;18.10;99.90;;;;;;5014453;28;20048;-75
2023/07/30 00:30:22;;;;;;;2.17;1.58;;;18.10;99.90;;;;;;5006240;28;20481;-75
2023/07/30 00:33:08;;;;;;;4.00;1.63;;;18.10;99.90;;;;;;5015491;28;20071;-79
2023/07/30 00:35:54;;;;;;;2.47;1.65;;;18.10;99.90;;;;;;5018765;28;20044;-80
2023/07/30 00:38:40;;;;;;;2.28;1.58;;;18.10;99.90;;;;;;5017265;28;20812;-80
2023/07/30 00:41:26;;;;;;;2.35;1.60;;;18.10;99.90;;;;;;5019508;28;20045;-79
2023/07/30 00:44:12;;;;;;;4.57;1.80;;;18.10;99.90;;;;;;5024326;28;20409;-80
2023/07/30 00:46:58;;;;;;;3.42;1.67;;;18.10;99.90;;;;;;5002769;28;20041;-80
2023/07/30 00:49:47;;;;;;;5.63;1.77;;;18.10;99.90;;;;;;5011710;28;20034;-80
2023/07/30 00:52:33;;;;;;;2.50;1.88;;;18.10;99.90;;;;;;5031931;28;20040;-80
2023/07/30 00:55:19;;;;;;;4.25;1.77;;;18.10;99.90;;;;;;4999511;28;20131;-80
2023/07/30 00:58:05;;;;;;;3.03;1.80;;;18.10;99.90;;;;;;5000826;28;20094;-80
2023/07/30 01:00:56;;;;;;;5.15;1.90;;;18.10;99.90;;;;;;4998947;28;20044;-80
2023/07/30 01:03:43;;;;;;;3.97;2.10;;;18.10;99.90;;;;;;4988194;28;20425;-80
2023/07/30 01:06:29;;;;;;;4.40;1.95;;;18.10;99.90;;;;;;5019035;28;20061;-80
2023/07/30 01:09:15;;;;;;;5.10;1.40;;;18.10;99.90;;;;;;5025662;28;20485;-80
2023/07/30 01:12:01;;;;;;;4.72;1.80;;;18.10;99.90;;;;;;5014118;28;20069;-80
2023/07/30 01:14:49;;;;;;;3.60;1.67;;;18.10;99.90;;;;;;5005449;28;20080;-79
2023/07/30 01:17:35;;;;;;;4.82;2.58;;;18.10;99.90;;;;;;5012258;28;20041;-79
2023/07/30 01:20:22;;;;;;;3.55;1.52;;;18.10;99.90;;;;;;5002908;28;20045;-80
2023/07/30 01:23:08;;;;;;;4.53;1.70;;;18.10;99.90;;;;;;5002517;28;20130;-80
2023/07/30 01:26:00;;;;;;;3.33;1.40;;;18.00;99.90;;;;;;5005984;28;20038;-79
2023/07/30 01:28:49;;;;;;;4.25;1.77;;;18.00;99.90;;;;;;5017771;28;20099;-79
2023/07/30 01:31:35;;;;;;;4.13;1.73;;;18.00;99.90;;;;;;5011275;28;20037;-79
2023/07/30 01:34:21;;;;;;;2.20;1.70;;;17.90;99.90;;;;;;5002686;28;20033;-79
2023/07/30 01:37:09;;;;;;;4.10;1.98;;;17.90;99.90;;;;;;5032903;28;20872;-79
2023/07/30 01:39:55;;;;;;;3.40;1.73;;;17.90;99.90;;;;;;4999450;28;20129;-79
2023/07/30 01:42:41;;;;;;;4.78;1.83;;;17.90;99.90;;;;;;5004662;28;20525;-79
2023/07/30 01:45:27;;;;;;;2.78;1.75;;;17.90;99.90;;;;;;5008727;28;20059;-80
2023/07/30 01:48:13;;;;;;;3.40;1.80;;;17.90;99.90;;;;;;5019354;28;20053;-80
2023/07/30 01:50:58;;;;;;;3.53;1.80;;;17.90;99.90;;;;;;5019364;28;20049;-80
2023/07/30 01:53:45;;;;;;;4.18;2.00;;;17.90;99.90;;;;;;5017749;28;20792;-79
2023/07/30 01:56:31;;;;;;;4.72;1.95;;;17.90;99.90;;;;;;5035242;28;20043;-79
2023/07/30 01:59:17;;;;;;;3.03;2.00;;;17.90;99.90;;;;;;5024671;28;20053;-79
2023/07/30 02:02:04;;;;;;;2.47;1.88;;;17.90;99.90;;;;;;4999264;28;20386;-79
2023/07/30 02:04:50;;;;;;;3.17;1.52;;;18.00;99.90;;;;;;5013045;28;20041;-79
2023/07/30 02:07:36;;;;;;;4.10;1.90;;;18.00;99.90;;;;;;5036947;28;20041;-79
2023/07/30 02:10:23;;;;;;;3.60;1.55;;;18.00;99.90;;;;;;5016229;28;20068;-79
2023/07/30 02:13:09;;;;;;;3.20;1.90;;;18.10;99.90;;;;;;4992785;28;20037;-79
2023/07/30 02:15:55;;;;;;;2.22;1.75;;;18.10;99.90;;;;;;5018795;28;20167;-79
2023/07/30 02:18:41;;;;;;;3.33;1.95;;;18.10;99.90;;;;;;5017371;28;20048;-79
2023/07/30 02:21:28;;;;;;;2.50;1.60;;;18.10;99.90;;;;;;5004307;28;20052;-79
2023/07/30 02:24:14;;;;;;;2.35;1.55;;;18.10;99.90;;;;;;4991827;28;20045;-79
2023/07/30 02:27:00;;;;;;;4.75;2.10;;;18.10;99.90;;;;;;5018561;28;20045;-79
2023/07/30 02:29:47;;;;;;;3.55;1.85;;;18.20;99.90;;;;;;5005598;28;20037;-80
2023/07/30 02:32:33;;;;;;;4.20;1.70;;;18.20;99.90;;;;;;5018731;28;20044;-79
2023/07/30 02:35:19;;;;;;;2.75;1.77;;;18.30;99.90;;;;;;4996592;28;20042;-79
2023/07/30 02:38:05;;;;;;;3.53;1.70;;;18.30;99.90;;;;;;5003536;28;20836;-79
2023/07/30 02:40:51;;;;;;;2.95;1.85;;;18.30;99.90;;;;;;5016827;28;20087;-79
2023/07/30 02:43:37;;;;;;;2.80;1.90;;;18.30;99.90;;;;;;5003722;28;20073;-79
2023/07/30 02:46:23;;;;;;;3.75;1.60;;;18.20;99.90;;;;;;5013614;28;20048;-79
2023/07/30 02:49:09;;;;;;;3.40;1.75;;;18.20;99.90;;;;;;5002847;28;20041;-79
2023/07/30 02:51:55;;;;;;;4.53;1.90;;;18.20;99.90;;;;;;5003684;28;20033;-79
2023/07/30 02:54:41;;;;;;;4.78;2.05;;;18.20;99.90;;;;;;4997828;28;20458;-79
2023/07/30 02:57:27;;;;;;;3.15;1.80;;;18.20;99.90;;;;;;5004467;28;20115;-79
2023/07/30 03:00:13;;;;;;;3.28;1.60;;;18.20;99.90;;;;;;5030017;28;20073;-79
2023/07/30 03:02:59;;;;;;;2.95;2.00;;;18.20;99.90;;;;;;5000392;28;20049;-79
2023/07/30 03:05:45;;;;;;;3.83;2.20;;;18.20;99.90;;;;;;5000359;28;20037;-79
2023/07/30 03:08:31;;;;;;;3.08;2.05;;;18.10;99.90;;;;;;5014483;28;20056;-78
2023/07/30 03:11:17;;;;;;;4.65;2.33;;;18.00;99.90;;;;;;5003005;28;20057;-79
2023/07/30 03:14:03;;;;;;;4.68;1.90;;;18.00;99.90;;;;;;5030618;28;20709;-79
2023/07/30 03:16:49;;;;;;;5.13;2.22;;;17.90;99.90;;;;;;5025548;28;20033;-79
2023/07/30 03:19:35;;;;;;;2.88;2.00;;;17.90;99.90;;;;;;5003992;28;20076;-79
2023/07/30 03:22:21;;;;;;;2.90;1.88;;;17.90;99.90;;;;;;5002398;28;20048;-79
2023/07/30 03:25:07;;;;;;;2.95;1.85;;;17.80;99.90;;;;;;5011174;28;20075;-78
2023/07/30 03:27:53;;;;;;;3.50;1.90;;;17.80;99.90;;;;;;5005465;28;20041;-79
2023/07/30 03:30:39;;;;;;;4.03;1.77;;;17.70;99.90;;;;;;5004006;28;20038;-79
2023/07/30 03:33:25;;;;;;;4.35;1.90;;;17.70;99.90;;;;;;5016049;28;20052;-79
2023/07/30 03:36:11;;;;;;;5.03;2.13;;;17.70;99.90;;;;;;5005827;28;20086;-79
2023/07/30 03:38:57;;;;;;;4.00;1.98;;;17.70;99.90;;;;;;5028650;28;20072;-79
2023/07/30 03:41:43;;;;;;;3.25;2.33;;;17.70;99.90;;;;;;5022818;28;20047;-79
2023/07/30 03:44:29;;;;;;;8.38;2.20;;;17.60;99.90;;;;;;5025931;28;20045;-79
2023/07/30 03:47:15;;;;;;;4.10;2.42;;;17.60;99.90;;;;;;5016728;28;20052;-78
2023/07/30 03:50:01;;;;;;;4.05;2.30;;;17.60;99.90;;;;;;5014365;28;20038;-79
2023/07/30 03:52:47;;;;;;;2.45;1.80;;;17.50;99.90;;;;;;5007978;28;20071;-79
2023/07/30 03:55:33;;;;;;;3.83;2.25;;;17.50;99.90;;;;;;5033221;28;20061;-78
2023/07/30 03:58:21;;;;;;;4.43;2.22;;;17.40;99.90;;;;;;5006541;28;20052;-78
2023/07/30 04:01:08;;;;;;;4.75;2.53;;;17.30;99.90;;;;;;5035206;28;20041;-78
2023/07/30 04:03:54;;;;;;;5.22;2.40;;;17.20;99.90;;;;;;5021659;28;20075;-79
2023/07/30 04:06:40;;;;;;;5.75;2.75;;;17.30;99.90;;;;;;5023195;28;20041;-79
2023/07/30 04:09:26;;;;;;;8.00;2.30;;;17.30;99.90;;;;;;5009124;28;20490;-79
2023/07/30 04:12:12;;;;;;;4.78;2.13;;;17.30;99.90;;;;;;5008199;28;20136;-79
2023/07/30 04:14:58;;;;;;;6.07;2.33;;;17.30;99.90;;;;;;5021113;28;20336;-79
2023/07/30 04:17:44;;;;;;;6.65;2.53;;;17.40;99.90;;;;;;5007114;28;20036;-79
2023/07/30 04:20:30;;;;;;;5.25;2.38;;;17.40;99.90;;;;;;5025858;28;20084;-79
2023/07/30 04:23:16;;;;;;;5.45;2.38;;;17.40;99.90;;;;;;5021576;28;20377;-79
2023/07/30 04:26:02;;;;;;;4.95;2.00;;;17.40;99.90;;;;;;5007948;28;20095;-79
2023/07/30 04:28:48;;;;;;;3.72;2.20;;;17.40;99.90;;;;;;5026823;28;20083;-79
2023/07/30 04:31:34;;;;;;;4.93;2.22;;;17.40;99.90;;;;;;5033969;28;20048;-79
2023/07/30 04:34:20;;;;;;;9.60;2.55;;;17.40;99.90;;;;;;5035319;28;20124;-79
2023/07/30 04:37:06;;;;;;;6.50;2.53;;;17.40;99.90;;;;;;5029359;28;20112;-79
2023/07/30 04:39:52;;;;;;;6.60;2.58;;;17.40;99.90;;;;;;5025423;28;20049;-79
2023/07/30 04:42:38;;;;;;;5.90;2.53;;;17.30;99.90;;;;;;5027985;28;20688;-79
2023/07/30 04:45:24;;;;;;;6.07;2.75;;;17.30;99.90;;;;;;5000563;28;20053;-79
2023/07/30 04:48:11;;;;;;;7.70;2.63;;;17.30;99.90;;;;;;5013635;28;20054;-79
2023/07/30 04:50:57;;;;;;;6.78;2.17;;;17.30;99.90;;;;;;5028098;28;20042;-79
2023/07/30 04:53:43;;;;;;;5.75;2.35;;;17.20;99.90;;;;;;5015956;28;20047;-79
2023/07/30 04:56:29;;;;;;;8.43;3.13;;;17.30;99.90;;;;;;4986660;28;20069;-79
2023/07/30 04:59:15;;;;;;;5.50;2.47;;;17.30;99.90;;;;;;5037798;28;20513;-79
2023/07/30 05:02:01;;;;;;;6.05;2.30;;;17.20;99.90;;;;;;5020686;28;20079;-79
2023/07/30 05:04:50;;;;;;;7.30;3.05;;;17.20;99.90;;;;;;5007318;28;20790;-79
2023/07/30 05:07:37;;;;;;;7.03;2.63;;;17.20;99.90;;;;;;5020785;28;20037;-79
2023/07/30 05:10:24;;;;;;;6.53;2.63;;;17.20;99.90;;;;;;5014901;28;20053;-79
2023/07/30 05:13:12;;;;;;;8.00;2.72;;;17.20;99.90;;;;;;5024956;28;20374;-79
2023/07/30 05:15:59;;;;;;;7.13;2.70;;;17.20;99.90;;;;;;5016411;28;20831;-79
2023/07/30 05:18:48;;;;;;;5.50;2.53;;;17.20;99.90;;;;;;5010640;28;20651;-75
2023/07/30 05:21:35;;;;;;;6.60;2.58;;;17.20;99.90;;;;;;5015515;28;20053;-76
2023/07/30 05:24:25;;;;;;;6.20;2.70;;;17.20;99.90;;;;;;4999391;28;20446;-76
2023/07/30 05:27:11;;;;;;;6.53;2.55;;;17.20;99.90;;;;;;5018528;28;20041;-76
2023/07/30 05:29:57;;;;;;;5.05;2.13;;;17.20;99.90;;;;;;5019617;28;20060;-75
2023/07/30 05:32:44;;;;;;;6.95;2.47;;;17.30;99.90;;;;;;5032039;28;20584;-75
2023/07/30 05:35:31;;;;;;;10.10;3.00;;;17.20;99.90;;;;;;4979220;28;20042;-76
2023/07/30 05:38:19;;;;;;;5.90;2.47;;;17.30;99.90;;;;;;4992692;28;20057;-77
2023/07/30 05:41:06;;;;;;;9.80;3.17;;;17.30;99.90;;;;;;5001701;28;20041;-76
2023/07/30 05:43:52;;;;;;;7.50;2.90;;;17.40;99.90;;;;;;5000393;28;20550;-76
2023/07/30 05:46:40;;;;;;;8.40;2.47;;;17.40;99.90;;;;;;4999418;28;20052;-76
2023/07/30 05:49:26;;;;;;;;;;;17.50;99.90;;;;;;5011588;28;20037;-76
2023/07/30 05:52:13;;;;;;;9.35;3.50;;;17.50;99.90;;;;;;5015288;28;19944;-75
2023/07/30 05:54:59;;;;;;;8.50;2.22;;;17.50;99.90;;;;;;5000283;28;20498;-76
2023/07/30 05:57:45;;;;;;;8.50;2.47;;;17.50;99.90;;;;;;5013956;28;20053;-75
2023/07/30 06:00:31;;;;;;;7.95;3.03;;;17.50;99.90;;;;;;5031041;28;20462;-76
2023/07/30 06:03:18;;;;;;;11.52;2.65;;;17.60;99.90;;;;;;4980837;28;20054;-76
2023/07/30 06:06:04;;;;;;;6.93;3.17;;;17.60;99.90;;;;;;4999341;28;20046;-79
2023/07/30 06:08:50;;;;;;;7.78;3.47;;;17.70;99.90;;;;;;5021337;28;20382;-79
2023/07/30 06:11:36;;;;;;;9.68;4.07;;;17.70;99.90;;;;;;5014912;28;20056;-79
2023/07/30 06:14:21;;;;;;;7.82;3.92;;;17.60;99.90;;;;;;4968470;28;20038;-79
2023/07/30 06:17:07;;;;;;;19.10;4.40;;;17.60;99.90;;;;;;4976370;28;20916;-79
2023/07/30 06:19:53;;;;;;;9.70;4.32;;;17.80;99.90;;;;;;4962782;28;20138;-79
2023/07/30 06:22:39;;;;;;;10.23;4.57;;;17.80;99.90;;;;;;4975969;28;20363;-79
2023/07/30 06:25:25;;;;;;;7.65;4.35;;;17.80;99.90;;;;;;4984060;28;20034;-79
2023/07/30 06:28:12;;;;;;;8.30;4.53;;;17.90;99.90;;;;;;4975507;28;20039;-79
2023/07/30 06:31:02;;;;;;;8.20;4.50;;;17.80;99.90;;;;;;4987439;28;20037;-79
2023/07/30 06:33:48;;;;;;;9.43;5.65;;;17.90;99.90;;;;;;4990807;28;20030;-79
2023/07/30 06:36:34;;;;;;;10.50;5.63;;;17.90;99.90;;;;;;4982602;28;20112;-79
2023/07/30 06:39:20;;;;;;;8.23;5.43;;;17.90;99.90;;;;;;4968793;28;20042;-79
2023/07/30 06:42:06;;;;;;;11.75;4.97;;;18.00;99.90;;;;;;5001850;28;20042;-79
2023/07/30 06:44:52;;;;;;;11.77;5.07;;;18.00;99.90;;;;;;5002594;28;20049;-79
2023/07/30 06:47:38;;;;;;;10.40;4.82;;;18.10;99.90;;;;;;4984692;28;20054;-79
2023/07/30 06:50:24;;;;;;;10.35;4.82;;;18.20;99.90;;;;;;4961894;28;20092;-78
2023/07/30 06:53:10;;;;;;;9.55;4.45;;;18.20;99.90;;;;;;4980883;28;20486;-79
2023/07/30 06:55:56;;;;;;;11.38;4.50;;;18.20;99.90;;;;;;5013174;28;20030;-79
2023/07/30 06:58:42;;;;;;;12.20;4.68;;;18.20;99.90;;;;;;5014023;28;20077;-79
2023/07/30 07:01:28;;;;;;;11.68;5.43;;;18.30;99.90;;;;;;4981223;28;20034;-79
2023/07/30 07:04:15;;;;;;;7.60;3.95;;;18.30;99.90;;;;;;4993015;28;20056;-79
2023/07/30 07:07:03;;;;;;;6.77;4.20;;;18.30;99.90;;;;;;4956831;28;20053;-79
2023/07/30 07:09:49;;;;;;;;;;;18.30;99.90;;;;;;5015350;28;20369;-79
2023/07/30 07:12:38;;;;;;;8.85;4.18;;;18.30;99.90;;;;;;5039841;28;19912;-79
2023/07/30 07:15:23;;;;;;;11.25;4.30;;;18.40;99.90;;;;;;5010491;28;20033;-79
2023/07/30 07:18:10;;;;;;;9.52;3.40;;;18.40;99.90;;;;;;5032808;28;20036;-79
2023/07/30 07:20:55;;;;;;;10.82;3.72;;;18.50;99.90;;;;;;5024705;28;20042;-79
2023/07/30 07:23:42;;;;;;;7.68;3.58;;;18.40;99.90;;;;;;5014849;28;20057;-79
2023/07/30 07:26:28;;;;;;;6.45;3.00;;;18.50;99.90;;;;;;5028004;28;20494;-79
2023/07/30 07:29:14;;;;;;;9.98;3.58;;;18.50;99.90;;;;;;5020969;28;20123;-79
2023/07/30 07:32:00;;;;;;;5.93;2.65;;;18.70;99.90;;;;;;5000350;28;20092;-80
2023/07/30 07:34:49;;;;;;;5.43;2.92;;;18.70;99.90;;;;;;4999976;28;20109;-80
2023/07/30 07:37:35;;;;;;;6.90;2.50;;;18.90;99.90;;;;;;5000213;28;20399;-79
2023/07/30 07:40:21;;;;;;;9.38;2.40;;;18.90;99.90;;;;;;5009192;28;20045;-79
2023/07/30 07:43:07;;;;;;;6.85;2.05;;;18.90;99.90;;;;;;5032775;28;20095;-79
2023/07/30 07:45:53;;;;;;;4.13;1.80;;;18.90;99.90;;;;;;5026644;28;20060;-79
2023/07/30 07:48:40;;;;;;;5.63;1.83;;;18.90;99.90;;;;;;5033772;28;20041;-79
2023/07/30 07:51:26;;;;;;;4.95;1.98;;;19.00;99.90;;;;;;5022696;28;20041;-79
2023/07/30 07:54:12;;;;;;;5.55;1.88;;;19.00;99.90;;;;;;5039990;28;20393;-79
2023/07/30 07:56:58;;;;;;;5.63;1.80;;;19.10;99.90;;;;;;5040128;28;20052;-79
2023/07/30 07:59:45;;;;;;;5.43;1.80;;;19.20;99.90;;;;;;5026030;28;20037;-79
2023/07/30 08:02:31;;;;;;;3.83;1.55;;;19.20;99.90;;;;;;5000527;28;20046;-79
2023/07/30 08:05:17;;;;;;;4.07;1.67;;;19.20;99.90;;;;;;4998077;28;20046;-78
2023/07/30 08:08:03;;;;;;;6.30;1.65;;;19.30;99.90;;;;;;4985294;28;20580;-75
2023/07/30 08:10:49;;;;;;;4.15;1.67;;;19.20;99.90;;;;;;5003030;28;20133;-75
2023/07/30 08:13:35;;;;;;;5.32;1.65;;;19.20;99.90;;;;;;5045458;28;20102;-75
2023/07/30 08:16:22;;;;;;;4.65;1.50;;;19.30;99.90;;;;;;5036918;28;20094;-75
2023/07/30 08:19:08;;;;;;;5.70;2.13;;;19.50;99.90;;;;;;5031676;28;20071;-74
2023/07/30 08:21:56;;;;;;;2.67;1.55;;;19.50;99.90;;;;;;5018347;28;20037;-74
2023/07/30 08:24:42;;;;;;;5.68;1.85;;;19.50;99.90;;;;;;5017390;28;20041;-74
2023/07/30 08:27:28;;;;;;;5.03;1.63;;;19.50;99.90;;;;;;5017007;28;20041;-75
2023/07/30 08:30:14;;;;;;;7.07;1.95;;;19.50;99.90;;;;;;5031717;28;20049;-75
2023/07/30 08:33:00;;;;;;;8.32;2.03;;;19.50;99.90;;;;;;5016390;28;20045;-74
2023/07/30 08:35:46;;;;;;;4.72;1.95;;;19.50;99.90;;;;;;5028159;28;20043;-74
2023/07/30 08:38:32;;;;;;;4.72;1.63;;;19.60;99.90;;;;;;5025875;28;20098;-74
2023/07/30 08:41:18;;;;;;;3.78;1.50;;;19.70;99.90;;;;;;5035467;28;20036;-74
2023/07/30 08:44:04;;;;;;;4.05;1.77;;;19.70;99.90;;;;;;5001047;28;20099;-75
2023/07/30 08:46:50;;;;;;;5.55;1.95;;;19.70;99.90;;;;;;5030286;28;20043;-74
2023/07/30 08:49:37;;;;;;;5.72;1.88;;;19.60;99.90;;;;;;5020904;28;20037;-74
2023/07/30 08:52:24;;;;;;;4.45;1.90;;;19.80;99.90;;;;;;5022387;28;20052;-75
2023/07/30 08:55:10;;;;;;;4.85;1.80;;;19.90;99.90;;;;;;5025367;28;20064;-75
2023/07/30 08:57:57;;;;;;;5.15;1.73;;;20.00;99.90;;;;;;5017864;28;20052;-75
2023/07/30 09:00:43;;;;;;;5.07;1.90;;;20.00;99.90;;;;;;5036199;28;20764;-75
2023/07/30 09:03:30;;;;;;;3.88;1.70;;;20.10;99.90;;;;;;5009266;28;20377;-80
2023/07/30 09:06:16;;;;;;;6.05;2.20;;;20.10;99.90;;;;;;5026876;28;20052;-79
2023/07/30 09:09:03;;;;;;;7.68;1.83;;;20.00;99.90;;;;;;5025073;28;20046;-77
2023/07/30 09:11:54;;;;;;;3.80;1.70;;;20.10;99.90;;;;;;5043299;28;20041;-76
2023/07/30 09:14:45;;;;;;;5.45;1.88;;;20.10;99.90;;;;;;5001383;28;20046;-76
2023/07/30 09:17:32;;;;;;;4.35;1.90;;;20.20;99.90;;;;;;5013879;28;20128;-76
2023/07/30 09:20:18;;;;;;;3.83;1.85;;;20.20;99.90;;;;;;5023247;28;20045;-76
2023/07/30 09:23:05;;;;;;;4.50;1.77;;;20.10;99.90;;;;;;5036740;28;20041;-77
2023/07/30 09:25:51;;;;;;;5.90;1.80;;;20.30;99.90;;;;;;5006386;28;20045;-77
2023/07/30 09:28:39;;;;;;;5.22;1.67;;;20.30;99.90;;;;;;5014668;28;20050;-76
2023/07/30 09:31:28;;;;;;;5.20;2.00;;;20.50;99.90;;;;;;5017019;28;20048;-77
2023/07/30 09:34:17;;;;;;;4.90;2.08;;;20.50;99.40;;;;;;5019488;28;20084;-77
2023/07/30 09:37:04;;;;;;;6.57;1.90;;;20.60;99.90;;;;;;5010034;28;20751;-77
2023/07/30 09:39:52;;;;;;;6.15;1.90;;;20.60;98.70;;;;;;5005083;28;20132;-76
2023/07/30 09:42:42;;;;;;;5.78;1.83;;;20.50;98.40;;;;;;5020617;28;20041;-77
2023/07/30 09:45:28;;;;;;;9.43;1.95;;;20.40;98.60;;;;;;5021415;28;20124;-77
2023/07/30 09:48:15;;;;;;;5.25;2.00;;;20.50;98.30;;;;;;5004563;28;20072;-77
2023/07/30 09:51:03;;;;;;;4.03;1.50;;;20.50;98.80;;;;;;5020972;28;20103;-77
2023/07/30 09:53:49;;;;;;;4.95;1.80;;;20.70;99.20;;;;;;5018212;28;20041;-78
2023/07/30 09:56:40;;;;;;;3.45;1.70;;;20.90;98.50;;;;;;5010542;28;20437;-76
2023/07/30 09:59:26;;;;;;;5.47;2.15;;;20.80;98.10;;;;;;5013168;28;20752;-76
2023/07/30 10:02:13;;;;;;;5.07;1.60;;;20.80;97.50;;;;;;5015375;28;20056;-76
2023/07/30 10:05:00;;;;;;;6.28;1.55;;;20.70;98.30;;;;;;5006836;28;20046;-76
2023/07/30 10:07:55;;;;;;;5.22;2.08;;;20.70;97.70;;;;;;5012856;28;20128;-77
2023/07/30 10:10:41;;;;;;;4.45;1.45;;;20.60;97.80;;;;;;5025690;28;20054;-76
2023/07/30 10:13:28;;;;;;;4.18;1.75;;;20.60;97.90;;;;;;5001661;28;20748;-77
2023/07/30 10:16:14;;;;;;;4.85;1.75;;;20.60;97.30;;;;;;5005809;28;20459;-77
2023/07/30 10:19:00;;;;;;;4.20;1.45;;;20.50;97.10;;;;;;5034247;28;20045;-77
2023/07/30 10:21:48;;;;;;;3.63;1.45;;;20.60;97.60;;;;;;5032527;28;20485;-77
2023/07/30 10:24:34;;;;;;;5.32;1.77;;;20.60;97.80;;;;;;5021552;28;20067;-76
2023/07/30 10:27:23;;;;;;;2.95;1.30;;;20.70;98.10;;;;;;5022121;28;20042;-77
2023/07/30 10:30:16;;;;;;;4.85;1.45;;;20.90;98.20;;;;;;5034910;28;20044;-76
2023/07/30 10:33:04;;;;;;;6.45;1.85;;;20.80;97.10;;;;;;5021613;28;20180;-77
2023/07/30 10:35:55;;;;;;;4.90;2.05;;;20.60;97.80;;;;;;5033955;28;20128;-76
2023/07/30 10:38:42;;;;;;;7.03;1.70;;;20.60;98.10;;;;;;5034007;28;20389;-76
2023/07/30 10:41:29;;;;;;;4.00;1.50;;;20.50;97.60;;;;;;5020774;28;20049;-76
2023/07/30 10:44:28;;;;;;;6.60;1.63;;;20.50;98.30;;;;;;5018625;28;20829;-76
2023/07/30 10:47:14;;;;;;;5.57;1.60;;;20.50;98.30;;;;;;5020857;28;20137;-76
2023/07/30 10:50:03;;;;;;;6.32;1.55;;;20.40;98.80;;;;;;5019454;28;20465;-76
2023/07/30 10:52:50;;;;;;;7.20;1.90;;;20.20;99.00;;;;;;5021384;28;20873;-76
2023/07/30 10:55:36;;;;;;;5.28;2.22;;;20.20;99.20;;;;;;5022027;28;20037;-76
2023/07/30 10:58:22;;;;;;;4.38;1.50;;;20.20;99.40;;;;;;5005736;28;20818;-76
2023/07/30 11:01:08;;;;;;;6.97;2.42;;;20.20;99.50;;;;;;5022809;28;20751;-76
2023/07/30 11:03:54;;;;;;;5.15;1.50;;;20.20;99.60;;;;;;5053780;28;20087;-76
2023/07/30 11:06:45;;;;;;;5.82;1.90;;;20.00;99.10;;;;;;5022610;28;20052;-76
2023/07/30 11:09:31;;;;;;;6.63;1.90;;;19.80;99.70;;;;;;5029806;28;20050;-76
2023/07/30 11:12:21;;;;;;;4.35;1.60;;;19.80;99.90;;;;;;5023348;28;20103;-76
2023/07/30 11:15:07;;;;;;;7.40;1.67;;;19.80;99.90;;;;;;5018827;28;20100;-76
2023/07/30 11:17:53;;;;;;;5.00;2.00;;;19.90;99.90;;;;;;5019885;28;20056;-76
2023/07/30 11:20:39;;;;;;;6.78;1.80;;;19.90;99.90;;;;;;4999375;28;20038;-76
2023/07/30 11:23:25;;;;;;;7.03;1.92;;;19.80;99.70;;;;;;4999931;28;20478;-76
2023/07/30 11:26:19;;;;;;;7.85;2.10;;;19.90;99.80;;;;;;4986476;28;20046;-78
2023/07/30 11:29:18;;;;;;;6.38;1.80;;;19.70;99.80;;;;;;5001536;28;20052;-78
2023/07/30 11:32:05;;;;;;;5.10;1.60;;;19.70;99.80;;;;;;5014011;28;20126;-79
2023/07/30 11:34:54;;;;;;;7.15;2.05;;;19.70;99.90;;;;;;5018645;28;20037;-79
2023/07/30 11:37:42;;;;;;;4.97;1.83;;;19.70;99.90;;;;;;5003924;28;20098;-79
2023/07/30 11:40:28;;;;;;;7.55;2.15;;;19.70;99.90;;;;;;5023816;28;20041;-79
2023/07/30 11:43:14;;;;;;;8.75;2.55;;;19.70;99.90;;;;;;5006270;28;20042;-78
2023/07/30 11:46:13;;;;;;;8.23;2.35;;;19.70;99.90;;;;;;4999944;28;20037;-78
2023/07/30 11:49:13;;;;;;;10.25;3.25;;;19.80;99.90;;;;;;5015155;28;20061;-76
2023/07/30 11:52:08;;;;;;;9.27;2.30;;;19.90;99.90;;;;;;5007461;28;20048;-76
2023/07/30 11:55:04;;;;;;;8.43;2.38;;;19.70;99.90;;;;;;5029441;28;20053;-76
2023/07/30 11:57:51;;;;;;;7.90;2.30;;;19.60;99.90;;;;;;5012020;28;20041;-75
2023/07/30 12:00:40;;;;;;;6.97;2.20;;;19.60;99.90;;;;;;5003782;28;20053;-75
2023/07/30 12:03:26;;;;;;;7.40;2.40;;;19.70;99.90;;;;;;5008529;28;20129;-75
2023/07/30 12:06:12;;;;;;;6.57;2.50;;;19.90;99.90;;;;;;5003221;28;20045;-78
2023/07/30 12:08:59;;;;;;;8.27;2.10;;;19.90;99.90;;;;;;5020034;28;20664;-78
2023/07/30 12:11:52;;;;;;;5.55;1.98;;;20.10;99.90;;;;;;5005303;28;20115;-78
2023/07/30 12:14:50;;;;;;;8.43;2.30;;;20.10;99.90;;;;;;5030304;28;20087;-79
2023/07/30 12:17:40;;;;;;;9.32;2.40;;;19.90;99.90;;;;;;5021504;28;20092;-78
2023/07/30 12:20:28;;;;;;;6.75;2.03;;;19.90;99.90;;;;;;5005111;28;20046;-78
2023/07/30 12:23:14;;;;;;;;;;;19.90;99.90;;;;;;5003197;28;20668;-78
2023/07/30 12:26:00;;;;;;;10.25;2.35;;;20.00;99.90;;;;;;5035193;28;20664;-78
2023/07/30 12:28:45;;;;;;;7.55;1.80;;;20.10;99.90;;;;;;5007773;28;20124;-78
2023/07/30 12:31:31;;;;;;;5.10;1.92;;;20.10;99.90;;;;;;4998260;28;20038;-78
2023/07/30 12:34:17;;;;;;;5.88;2.10;;;20.20;99.90;;;;;;5018989;28;20041;-78
2023/07/30 12:37:04;;;;;;;8.82;2.15;;;20.30;99.90;;;;;;5020939;28;20052;-78
2023/07/30 12:39:52;;;;;;;5.65;2.17;;;20.50;99.90;;;;;;4985071;28;20098;-78
2023/07/30 12:42:38;;;;;;;6.72;2.05;;;20.60;99.90;;;;;;5036455;28;20857;-79
2023/07/30 12:45:25;;;;;;;4.60;1.60;;;20.40;99.90;;;;;;5022861;28;20037;-79
2023/07/30 12:48:11;;;;;;;7.65;2.60;;;20.30;99.90;;;;;;5027180;28;20041;-78
2023/07/30 12:50:59;;;;;;;6.57;2.15;;;20.60;99.90;;;;;;5035972;28;20123;-79
2023/07/30 12:53:46;;;;;;;6.63;2.38;;;20.70;99.90;;;;;;5016490;28;20037;-79
2023/07/30 12:56:34;;;;;;;8.20;1.98;;;20.50;99.90;;;;;;5006290;28;20081;-78
2023/07/30 12:59:20;;;;;;;4.32;1.60;;;20.40;99.90;;;;;;4993426;28;20056;-79
2023/07/30 13:02:06;;;;;;;5.97;2.22;;;20.50;99.90;;;;;;5020060;28;20053;-79
2023/07/30 13:04:52;;;;;;;6.78;2.13;;;20.70;99.90;;;;;;5021915;28;20060;-79
2023/07/30 13:07:38;;;;;;;8.20;2.30;;;20.80;99.90;;;;;;5016168;28;20096;-80
2023/07/30 13:10:26;;;;;;;7.78;2.50;;;20.70;99.40;;;;;;5014852;28;20483;-80
2023/07/30 13:13:12;;;;;;;5.45;2.25;;;20.90;99.30;;;;;;4985312;28;20121;-79
2023/07/30 13:16:01;;;;;;;8.15;2.35;;;21.30;99.10;;;;;;4996325;28;20042;-79
2023/07/30 13:18:47;;;;;;;4.75;2.00;;;21.10;99.20;;;;;;4971241;28;20092;-79
2023/07/30 13:21:33;;;;;;;5.38;1.98;;;21.10;99.80;;;;;;4998089;28;20034;-79
2023/07/30 13:24:18;;;;;;;6.57;2.40;;;21.40;99.60;;;;;;4995174;28;20093;-78
2023/07/30 13:27:06;;;;;;;7.47;2.40;;;21.50;98.70;;;;;;4984906;28;20085;-79
2023/07/30 13:29:52;;;;;;;6.63;2.30;;;21.80;97.40;;;;;;4998441;28;20065;-79
2023/07/30 13:32:38;;;;;;;6.30;2.72;;;21.50;96.90;;;;;;4998936;28;20364;-81
2023/07/30 13:35:24;;;;;;;9.13;2.60;;;21.50;97.10;;;;;;4984291;28;20041;-80
2023/07/30 13:38:10;;;;;;;10.55;2.95;;;21.80;96.60;;;;;;4985521;28;20060;-80
2023/07/30 13:40:57;;;;;;;7.13;2.50;;;21.90;96.30;;;;;;4998306;28;20535;-80
2023/07/30 13:43:46;;;;;;;8.75;2.45;;;21.70;95.40;;;;;;4984778;28;20053;-79
2023/07/30 13:46:34;;;;;;;5.07;2.28;;;21.80;95.90;;;;;;4996697;28;20034;-81
2023/07/30 13:49:23;;;;;;;8.23;2.35;;;22.20;96.60;;;;;;4983022;28;20046;-81
2023/07/30 13:52:15;;;;;;;7.45;2.75;;;22.40;95.70;;;;;;4998322;28;20042;-80
2023/07/30 13:55:01;;;;;;;5.03;2.42;;;22.40;94.90;;;;;;4996749;28;20053;-78
2023/07/30 13:57:47;;;;;;;5.35;2.67;;;22.40;94.80;;;;;;4992735;28;20038;-79
2023/07/30 14:00:33;;;;;;;6.38;2.80;;;22.40;94.10;;;;;;4998430;28;20046;-80
2023/07/30 14:03:19;;;;;;;4.57;2.75;;;22.50;94.30;;;;;;4970456;28;20340;-81
2023/07/30 14:06:05;;;;;;;6.20;3.40;;;22.60;94.20;;;;;;4996144;28;20046;-80
2023/07/30 14:08:53;;;;;;;5.57;3.20;;;22.50;93.30;;;;;;4996506;28;20053;-79
2023/07/30 14:11:42;;;;;;;6.32;2.92;;;22.70;93.60;;;;;;5012863;28;20045;-79
2023/07/30 14:14:31;;;;;;;5.97;3.13;;;22.80;93.20;;;;;;5016661;28;20045;-80
2023/07/30 14:17:20;;;;;;;8.20;3.17;;;23.00;94.10;;;;;;5008567;28;20347;-80
2023/07/30 14:20:11;;;;;;;7.97;3.30;;;22.90;93.90;;;;;;5015753;28;20042;-79
2023/07/30 14:23:00;;;;;;;7.05;3.30;;;22.90;93.40;;;;;;5003100;28;20056;-79
2023/07/30 14:25:48;;;;;;;7.65;3.15;;;22.80;92.60;;;;;;5027484;28;20092;-79
2023/07/30 14:28:39;;;;;;;7.40;3.20;;;22.80;92.50;;;;;;5014938;28;20394;-79
2023/07/30 14:31:28;;;;;;;4.78;2.92;;;23.10;91.80;;;;;;5026016;28;20038;-80